Airport ID:K65S
Update Time (UTC):15 OCT 19 20:12
Wind Speed (Knots):CALM
Wind Direction (Magnetic):
Temperature (°C):9
Dew Point (°C):0
Humidity (%):54
Altimeter (inHg):30.09
Density Altitude (Feet):
Visibility (Miles):10
Clouds (Hundreds of feet):FEW095
Present Weather:NO PRECIPITATION
METAR:METAR K65S 152010Z AUTO 00000KT 10SM FEW095 09/00 A3010 RMK AO2

The data displayed is for advisory purposes only and is not to be used for flight planning or operations.

This page is not automatically refreshed. Reload the page to see current data.